sensor_id;sensor_type;location;lat;lon;timestamp;temperature;humidity
39931;DHT22;26635;-35.248;149.138;2024-03-25T00:01:42;17.80;56.90
39931;DHT22;26635;-35.248;149.138;2024-03-25T00:04:10;18.00;56.70
39931;DHT22;26635;-35.248;149.138;2024-03-25T00:06:39;18.20;54.90
39931;DHT22;26635;-35.248;149.138;2024-03-25T00:09:07;18.40;54.90
39931;DHT22;26635;-35.248;149.138;2024-03-25T00:11:42;18.60;55.70
39931;DHT22;26635;-35.248;149.138;2024-03-25T00:14:10;18.80;54.80
39931;DHT22;26635;-35.248;149.138;2024-03-25T00:16:39;19.00;54.60
39931;DHT22;26635;-35.248;149.138;2024-03-25T00:19:07;19.20;55.30
39931;DHT22;26635;-35.248;149.138;2024-03-25T00:21:35;19.30;52.60
39931;DHT22;26635;-35.248;149.138;2024-03-25T00:24:04;19.50;52.50
39931;DHT22;26635;-35.248;149.138;2024-03-25T00:26:32;19.60;52.70
39931;DHT22;26635;-35.248;149.138;2024-03-25T00:29:00;19.80;52.50
39931;DHT22;26635;-35.248;149.138;2024-03-25T00:31:29;20.00;52.20
39931;DHT22;26635;-35.248;149.138;2024-03-25T00:33:57;20.10;51.60
39931;DHT22;26635;-35.248;149.138;2024-03-25T00:36:26;20.30;50.20
39931;DHT22;26635;-35.248;149.138;2024-03-25T00:38:54;20.40;49.30
39931;DHT22;26635;-35.248;149.138;2024-03-25T00:41:22;20.50;49.80
39931;DHT22;26635;-35.248;149.138;2024-03-25T00:43:51;20.70;48.60
39931;DHT22;26635;-35.248;149.138;2024-03-25T00:46:19;20.80;48.80
39931;DHT22;26635;-35.248;149.138;2024-03-25T00:48:47;21.10;48.40
39931;DHT22;26635;-35.248;149.138;2024-03-25T00:51:16;21.20;46.00
39931;DHT22;26635;-35.248;149.138;2024-03-25T00:53:44;21.30;46.30
39931;DHT22;26635;-35.248;149.138;2024-03-25T00:56:12;21.40;47.00
39931;DHT22;26635;-35.248;149.138;2024-03-25T00:58:40;21.60;45.40
39931;DHT22;26635;-35.248;149.138;2024-03-25T01:01:09;21.70;45.60
39931;DHT22;26635;-35.248;149.138;2024-03-25T01:03:37;21.90;45.70
39931;DHT22;26635;-35.248;149.138;2024-03-25T01:06:05;21.90;43.50
39931;DHT22;26635;-35.248;149.138;2024-03-25T01:08:34;22.00;44.10
39931;DHT22;26635;-35.248;149.138;2024-03-25T01:11:02;22.20;45.30
39931;DHT22;26635;-35.248;149.138;2024-03-25T01:13:31;22.30;46.10
39931;DHT22;26635;-35.248;149.138;2024-03-25T01:15:59;22.50;43.40
39931;DHT22;26635;-35.248;149.138;2024-03-25T01:18:27;22.60;44.20
39931;DHT22;26635;-35.248;149.138;2024-03-25T01:20:56;22.80;41.80
39931;DHT22;26635;-35.248;149.138;2024-03-25T01:23:24;23.00;42.70
39931;DHT22;26635;-35.248;149.138;2024-03-25T01:25:53;23.20;40.70
39931;DHT22;26635;-35.248;149.138;2024-03-25T01:28:21;23.40;41.70
39931;DHT22;26635;-35.248;149.138;2024-03-25T01:30:50;23.50;41.30
39931;DHT22;26635;-35.248;149.138;2024-03-25T01:33:18;23.50;41.30
39931;DHT22;26635;-35.248;149.138;2024-03-25T01:35:47;23.70;40.20
39931;DHT22;26635;-35.248;149.138;2024-03-25T01:38:16;23.80;40.60
39931;DHT22;26635;-35.248;149.138;2024-03-25T01:40:49;23.90;40.30
39931;DHT22;26635;-35.248;149.138;2024-03-25T01:43:18;24.00;40.90
39931;DHT22;26635;-35.248;149.138;2024-03-25T01:45:46;23.90;39.10
39931;DHT22;26635;-35.248;149.138;2024-03-25T01:48:16;24.00;40.50
39931;DHT22;26635;-35.248;149.138;2024-03-25T01:50:45;24.10;40.90
39931;DHT22;26635;-35.248;149.138;2024-03-25T01:53:15;24.20;39.00
39931;DHT22;26635;-35.248;149.138;2024-03-25T01:55:43;24.40;39.50
39931;DHT22;26635;-35.248;149.138;2024-03-25T01:58:13;24.40;40.00
39931;DHT22;26635;-35.248;149.138;2024-03-25T02:00:42;24.40;40.10
39931;DHT22;26635;-35.248;149.138;2024-03-25T02:03:11;24.50;40.10
39931;DHT22;26635;-35.248;149.138;2024-03-25T02:05:40;24.60;40.10
39931;DHT22;26635;-35.248;149.138;2024-03-25T02:08:10;24.70;37.60
39931;DHT22;26635;-35.248;149.138;2024-03-25T02:10:39;24.80;38.50
39931;DHT22;26635;-35.248;149.138;2024-03-25T02:13:07;24.90;39.30
39931;DHT22;26635;-35.248;149.138;2024-03-25T02:15:36;25.00;38.30
39931;DHT22;26635;-35.248;149.138;2024-03-25T02:18:04;25.00;38.10
39931;DHT22;26635;-35.248;149.138;2024-03-25T02:20:34;25.10;38.10
39931;DHT22;26635;-35.248;149.138;2024-03-25T02:23:02;25.20;38.70
39931;DHT22;26635;-35.248;149.138;2024-03-25T02:25:33;25.20;37.00
39931;DHT22;26635;-35.248;149.138;2024-03-25T02:28:03;25.20;38.70
39931;DHT22;26635;-35.248;149.138;2024-03-25T02:30:31;25.10;35.90
39931;DHT22;26635;-35.248;149.138;2024-03-25T02:32:59;25.00;36.90
39931;DHT22;26635;-35.248;149.138;2024-03-25T02:35:28;25.00;38.30
39931;DHT22;26635;-35.248;149.138;2024-03-25T02:37:58;25.10;37.80
39931;DHT22;26635;-35.248;149.138;2024-03-25T02:40:26;25.20;38.50
39931;DHT22;26635;-35.248;149.138;2024-03-25T02:42:54;25.30;38.30
39931;DHT22;26635;-35.248;149.138;2024-03-25T02:45:23;25.40;38.00
39931;DHT22;26635;-35.248;149.138;2024-03-25T02:47:51;25.50;36.60
39931;DHT22;26635;-35.248;149.138;2024-03-25T02:50:20;25.50;37.60
39931;DHT22;26635;-35.248;149.138;2024-03-25T02:52:48;25.60;36.90
39931;DHT22;26635;-35.248;149.138;2024-03-25T02:55:16;25.70;36.20
39931;DHT22;26635;-35.248;149.138;2024-03-25T02:57:45;25.50;35.80
39931;DHT22;26635;-35.248;149.138;2024-03-25T03:00:13;25.50;37.30
39931;DHT22;26635;-35.248;149.138;2024-03-25T03:02:42;25.60;36.80
39931;DHT22;26635;-35.248;149.138;2024-03-25T03:05:10;25.80;38.30
39931;DHT22;26635;-35.248;149.138;2024-03-25T03:07:39;25.80;36.20
39931;DHT22;26635;-35.248;149.138;2024-03-25T03:10:07;25.90;35.80
39931;DHT22;26635;-35.248;149.138;2024-03-25T03:12:36;25.90;37.20
39931;DHT22;26635;-35.248;149.138;2024-03-25T03:15:05;26.00;36.50
39931;DHT22;26635;-35.248;149.138;2024-03-25T03:17:33;26.00;35.00
39931;DHT22;26635;-35.248;149.138;2024-03-25T03:20:01;26.10;36.50
39931;DHT22;26635;-35.248;149.138;2024-03-25T03:22:33;26.10;36.70
39931;DHT22;26635;-35.248;149.138;2024-03-25T03:25:01;26.10;35.90
39931;DHT22;26635;-35.248;149.138;2024-03-25T03:27:31;26.10;34.60
39931;DHT22;26635;-35.248;149.138;2024-03-25T03:29:59;26.10;36.10
39931;DHT22;26635;-35.248;149.138;2024-03-25T03:32:27;26.20;36.60
39931;DHT22;26635;-35.248;149.138;2024-03-25T03:34:56;26.20;36.20
39931;DHT22;26635;-35.248;149.138;2024-03-25T03:37:24;26.30;35.30
39931;DHT22;26635;-35.248;149.138;2024-03-25T03:39:53;26.40;35.30
39931;DHT22;26635;-35.248;149.138;2024-03-25T03:42:22;26.40;35.90
39931;DHT22;26635;-35.248;149.138;2024-03-25T03:44:50;26.40;35.10
39931;DHT22;26635;-35.248;149.138;2024-03-25T03:47:18;26.40;36.20
39931;DHT22;26635;-35.248;149.138;2024-03-25T03:49:46;26.40;34.60
39931;DHT22;26635;-35.248;149.138;2024-03-25T03:52:15;26.40;35.20
39931;DHT22;26635;-35.248;149.138;2024-03-25T03:54:43;26.40;35.00
39931;DHT22;26635;-35.248;149.138;2024-03-25T03:57:12;26.40;35.30
39931;DHT22;26635;-35.248;149.138;2024-03-25T03:59:40;26.30;33.10
39931;DHT22;26635;-35.248;149.138;2024-03-25T04:02:09;26.20;32.10
39931;DHT22;26635;-35.248;149.138;2024-03-25T04:04:37;26.20;32.50
39931;DHT22;26635;-35.248;149.138;2024-03-25T04:07:05;26.10;32.70
39931;DHT22;26635;-35.248;149.138;2024-03-25T04:09:34;26.10;36.30
39931;DHT22;26635;-35.248;149.138;2024-03-25T04:12:02;26.20;35.50
39931;DHT22;26635;-35.248;149.138;2024-03-25T04:14:30;26.20;34.80
39931;DHT22;26635;-35.248;149.138;2024-03-25T04:16:59;26.30;34.40
39931;DHT22;26635;-35.248;149.138;2024-03-25T04:19:27;26.30;33.80
39931;DHT22;26635;-35.248;149.138;2024-03-25T04:21:56;26.40;34.80
39931;DHT22;26635;-35.248;149.138;2024-03-25T04:24:26;26.40;35.80
39931;DHT22;26635;-35.248;149.138;2024-03-25T04:26:54;26.40;36.60
39931;DHT22;26635;-35.248;149.138;2024-03-25T04:29:22;26.40;35.40
39931;DHT22;26635;-35.248;149.138;2024-03-25T04:31:51;26.40;35.00
39931;DHT22;26635;-35.248;149.138;2024-03-25T04:34:19;26.40;34.10
39931;DHT22;26635;-35.248;149.138;2024-03-25T04:36:49;26.30;35.70
39931;DHT22;26635;-35.248;149.138;2024-03-25T04:39:17;26.30;34.10
39931;DHT22;26635;-35.248;149.138;2024-03-25T04:41:46;26.30;34.60
39931;DHT22;26635;-35.248;149.138;2024-03-25T04:44:14;26.10;33.30
39931;DHT22;26635;-35.248;149.138;2024-03-25T04:46:45;26.10;33.90
39931;DHT22;26635;-35.248;149.138;2024-03-25T04:49:14;26.00;34.40
39931;DHT22;26635;-35.248;149.138;2024-03-25T04:51:42;26.00;34.60
39931;DHT22;26635;-35.248;149.138;2024-03-25T04:54:10;26.10;35.10
39931;DHT22;26635;-35.248;149.138;2024-03-25T04:56:39;26.10;35.10
39931;DHT22;26635;-35.248;149.138;2024-03-25T04:59:08;26.00;36.20
39931;DHT22;26635;-35.248;149.138;2024-03-25T05:01:37;25.90;35.10
39931;DHT22;26635;-35.248;149.138;2024-03-25T05:04:05;25.90;37.10
39931;DHT22;26635;-35.248;149.138;2024-03-25T05:06:40;25.90;35.60
39931;DHT22;26635;-35.248;149.138;2024-03-25T05:09:09;25.80;34.50
39931;DHT22;26635;-35.248;149.138;2024-03-25T05:11:37;25.70;35.20
39931;DHT22;26635;-35.248;149.138;2024-03-25T05:14:06;25.80;36.10
39931;DHT22;26635;-35.248;149.138;2024-03-25T05:16:34;25.70;35.80
39931;DHT22;26635;-35.248;149.138;2024-03-25T05:19:04;25.70;37.10
39931;DHT22;26635;-35.248;149.138;2024-03-25T05:21:32;25.60;36.00
39931;DHT22;26635;-35.248;149.138;2024-03-25T05:24:01;25.50;35.60
39931;DHT22;26635;-35.248;149.138;2024-03-25T05:26:29;25.50;36.50
39931;DHT22;26635;-35.248;149.138;2024-03-25T05:28:58;25.50;35.90
39931;DHT22;26635;-35.248;149.138;2024-03-25T05:31:26;25.40;37.30
39931;DHT22;26635;-35.248;149.138;2024-03-25T05:33:55;25.40;36.90
39931;DHT22;26635;-35.248;149.138;2024-03-25T05:36:23;25.40;36.20
39931;DHT22;26635;-35.248;149.138;2024-03-25T05:38:52;25.40;36.50
39931;DHT22;26635;-35.248;149.138;2024-03-25T05:41:20;25.40;36.50
39931;DHT22;26635;-35.248;149.138;2024-03-25T05:43:48;25.40;37.40
39931;DHT22;26635;-35.248;149.138;2024-03-25T05:46:17;25.40;36.10
39931;DHT22;26635;-35.248;149.138;2024-03-25T05:48:45;25.30;36.70
39931;DHT22;26635;-35.248;149.138;2024-03-25T05:51:13;25.20;37.50
39931;DHT22;26635;-35.248;149.138;2024-03-25T05:53:42;25.20;36.40
39931;DHT22;26635;-35.248;149.138;2024-03-25T05:56:10;25.20;37.80
39931;DHT22;26635;-35.248;149.138;2024-03-25T05:58:39;25.10;39.20
39931;DHT22;26635;-35.248;149.138;2024-03-25T06:01:07;25.00;38.80
39931;DHT22;26635;-35.248;149.138;2024-03-25T06:03:35;25.00;38.10
39931;DHT22;26635;-35.248;149.138;2024-03-25T06:06:04;25.00;38.60
39931;DHT22;26635;-35.248;149.138;2024-03-25T06:08:32;24.90;39.70
39931;DHT22;26635;-35.248;149.138;2024-03-25T06:11:03;24.90;38.50
39931;DHT22;26635;-35.248;149.138;2024-03-25T06:13:31;24.80;38.30
39931;DHT22;26635;-35.248;149.138;2024-03-25T06:16:00;24.70;38.70
39931;DHT22;26635;-35.248;149.138;2024-03-25T06:18:28;24.60;39.60
39931;DHT22;26635;-35.248;149.138;2024-03-25T06:20:57;24.60;38.60
39931;DHT22;26635;-35.248;149.138;2024-03-25T06:23:29;24.60;39.00
39931;DHT22;26635;-35.248;149.138;2024-03-25T06:25:58;24.50;38.80
39931;DHT22;26635;-35.248;149.138;2024-03-25T06:28:26;24.50;39.00
39931;DHT22;26635;-35.248;149.138;2024-03-25T06:30:55;24.50;38.90
39931;DHT22;26635;-35.248;149.138;2024-03-25T06:33:41;24.40;39.10
39931;DHT22;26635;-35.248;149.138;2024-03-25T06:36:27;24.40;39.30
39931;DHT22;26635;-35.248;149.138;2024-03-25T06:38:56;24.30;39.50
39931;DHT22;26635;-35.248;149.138;2024-03-25T06:41:25;24.30;40.10
39931;DHT22;26635;-35.248;149.138;2024-03-25T06:43:53;24.30;39.80
39931;DHT22;26635;-35.248;149.138;2024-03-25T06:46:22;24.30;38.60
39931;DHT22;26635;-35.248;149.138;2024-03-25T06:48:50;24.20;40.20
39931;DHT22;26635;-35.248;149.138;2024-03-25T06:51:19;24.20;40.20
39931;DHT22;26635;-35.248;149.138;2024-03-25T06:53:51;24.10;40.30
39931;DHT22;26635;-35.248;149.138;2024-03-25T06:56:19;24.00;41.30
39931;DHT22;26635;-35.248;149.138;2024-03-25T06:58:48;23.90;41.00
39931;DHT22;26635;-35.248;149.138;2024-03-25T07:01:16;23.90;40.30
39931;DHT22;26635;-35.248;149.138;2024-03-25T07:03:47;23.90;40.00
39931;DHT22;26635;-35.248;149.138;2024-03-25T07:06:15;23.80;41.30
39931;DHT22;26635;-35.248;149.138;2024-03-25T07:08:44;23.80;40.40
39931;DHT22;26635;-35.248;149.138;2024-03-25T07:11:12;23.70;40.40
39931;DHT22;26635;-35.248;149.138;2024-03-25T07:13:40;23.70;40.00
39931;DHT22;26635;-35.248;149.138;2024-03-25T07:16:08;23.70;39.60
39931;DHT22;26635;-35.248;149.138;2024-03-25T07:18:38;23.70;39.30
39931;DHT22;26635;-35.248;149.138;2024-03-25T07:21:06;23.60;40.60
39931;DHT22;26635;-35.248;149.138;2024-03-25T07:23:34;23.50;39.30
39931;DHT22;26635;-35.248;149.138;2024-03-25T07:26:03;23.40;40.80
39931;DHT22;26635;-35.248;149.138;2024-03-25T07:28:31;23.40;41.10
39931;DHT22;26635;-35.248;149.138;2024-03-25T07:30:59;23.30;39.80
39931;DHT22;26635;-35.248;149.138;2024-03-25T07:33:27;23.30;41.20
39931;DHT22;26635;-35.248;149.138;2024-03-25T07:35:56;23.20;39.90
39931;DHT22;26635;-35.248;149.138;2024-03-25T07:38:24;23.10;40.40
39931;DHT22;26635;-35.248;149.138;2024-03-25T07:40:53;23.00;40.80
39931;DHT22;26635;-35.248;149.138;2024-03-25T07:43:21;23.00;40.40
39931;DHT22;26635;-35.248;149.138;2024-03-25T07:45:50;22.90;40.50
39931;DHT22;26635;-35.248;149.138;2024-03-25T07:48:18;22.80;40.80
39931;DHT22;26635;-35.248;149.138;2024-03-25T07:50:47;22.70;40.90
39931;DHT22;26635;-35.248;149.138;2024-03-25T07:53:15;22.70;41.10
39931;DHT22;26635;-35.248;149.138;2024-03-25T07:55:43;22.60;41.30
39931;DHT22;26635;-35.248;149.138;2024-03-25T07:58:11;22.50;41.80
39931;DHT22;26635;-35.248;149.138;2024-03-25T08:00:40;22.40;41.70
39931;DHT22;26635;-35.248;149.138;2024-03-25T08:03:09;22.30;41.30
39931;DHT22;26635;-35.248;149.138;2024-03-25T08:05:38;22.20;41.80
39931;DHT22;26635;-35.248;149.138;2024-03-25T08:08:06;22.00;42.30
39931;DHT22;26635;-35.248;149.138;2024-03-25T08:10:38;21.90;42.90
39931;DHT22;26635;-35.248;149.138;2024-03-25T08:13:06;21.80;43.00
39931;DHT22;26635;-35.248;149.138;2024-03-25T08:15:34;21.70;43.50
39931;DHT22;26635;-35.248;149.138;2024-03-25T08:18:03;21.50;43.60
39931;DHT22;26635;-35.248;149.138;2024-03-25T08:20:32;21.50;43.40
39931;DHT22;26635;-35.248;149.138;2024-03-25T08:23:00;21.30;43.70
39931;DHT22;26635;-35.248;149.138;2024-03-25T08:25:29;21.30;44.40
39931;DHT22;26635;-35.248;149.138;2024-03-25T08:27:57;21.20;45.10
39931;DHT22;26635;-35.248;149.138;2024-03-25T08:30:26;21.10;45.10
39931;DHT22;26635;-35.248;149.138;2024-03-25T08:32:54;21.00;45.80
39931;DHT22;26635;-35.248;149.138;2024-03-25T08:35:22;21.00;46.70
39931;DHT22;26635;-35.248;149.138;2024-03-25T08:37:50;20.80;47.90
39931;DHT22;26635;-35.248;149.138;2024-03-25T08:40:19;20.70;48.80
39931;DHT22;26635;-35.248;149.138;2024-03-25T08:42:47;20.60;48.90
39931;DHT22;26635;-35.248;149.138;2024-03-25T08:45:15;20.40;50.30
39931;DHT22;26635;-35.248;149.138;2024-03-25T08:47:43;20.30;51.00
39931;DHT22;26635;-35.248;149.138;2024-03-25T08:50:12;20.20;51.30
39931;DHT22;26635;-35.248;149.138;2024-03-25T08:52:40;20.10;51.60
39931;DHT22;26635;-35.248;149.138;2024-03-25T08:55:08;19.90;51.00
39931;DHT22;26635;-35.248;149.138;2024-03-25T08:57:36;19.80;51.40
39931;DHT22;26635;-35.248;149.138;2024-03-25T09:00:05;19.70;51.60
39931;DHT22;26635;-35.248;149.138;2024-03-25T09:02:37;19.60;52.20
39931;DHT22;26635;-35.248;149.138;2024-03-25T09:05:06;19.50;51.60
39931;DHT22;26635;-35.248;149.138;2024-03-25T09:07:36;19.40;52.90
39931;DHT22;26635;-35.248;149.138;2024-03-25T09:10:05;19.20;53.40
39931;DHT22;26635;-35.248;149.138;2024-03-25T09:12:51;19.20;54.20
39931;DHT22;26635;-35.248;149.138;2024-03-25T09:15:19;19.20;54.20
39931;DHT22;26635;-35.248;149.138;2024-03-25T09:17:48;19.10;54.10
39931;DHT22;26635;-35.248;149.138;2024-03-25T09:20:16;19.00;54.20
39931;DHT22;26635;-35.248;149.138;2024-03-25T09:22:44;18.90;55.90
39931;DHT22;26635;-35.248;149.138;2024-03-25T09:25:13;18.80;55.20
39931;DHT22;26635;-35.248;149.138;2024-03-25T09:27:45;18.70;55.90
39931;DHT22;26635;-35.248;149.138;2024-03-25T09:30:14;18.70;56.10
39931;DHT22;26635;-35.248;149.138;2024-03-25T09:32:43;18.50;56.60
39931;DHT22;26635;-35.248;149.138;2024-03-25T09:35:11;18.50;57.10
39931;DHT22;26635;-35.248;149.138;2024-03-25T09:37:40;18.40;57.70
39931;DHT22;26635;-35.248;149.138;2024-03-25T09:40:08;18.30;58.70
39931;DHT22;26635;-35.248;149.138;2024-03-25T09:42:49;18.30;57.90
39931;DHT22;26635;-35.248;149.138;2024-03-25T09:45:24;18.20;58.80
39931;DHT22;26635;-35.248;149.138;2024-03-25T09:47:54;18.10;59.10
39931;DHT22;26635;-35.248;149.138;2024-03-25T09:50:23;18.00;61.20
39931;DHT22;26635;-35.248;149.138;2024-03-25T09:52:52;17.90;59.90
39931;DHT22;26635;-35.248;149.138;2024-03-25T09:55:23;17.80;60.20
39931;DHT22;26635;-35.248;149.138;2024-03-25T09:57:52;17.80;60.30
39931;DHT22;26635;-35.248;149.138;2024-03-25T10:00:22;17.80;59.10
39931;DHT22;26635;-35.248;149.138;2024-03-25T10:02:51;17.70;61.80
39931;DHT22;26635;-35.248;149.138;2024-03-25T10:05:20;17.60;60.70
39931;DHT22;26635;-35.248;149.138;2024-03-25T10:07:49;17.60;62.50
39931;DHT22;26635;-35.248;149.138;2024-03-25T10:10:20;17.50;62.30
39931;DHT22;26635;-35.248;149.138;2024-03-25T10:12:50;17.50;61.90
39931;DHT22;26635;-35.248;149.138;2024-03-25T10:15:18;17.40;62.50
39931;DHT22;26635;-35.248;149.138;2024-03-25T10:17:49;17.40;62.70
39931;DHT22;26635;-35.248;149.138;2024-03-25T10:20:19;17.30;62.70
39931;DHT22;26635;-35.248;149.138;2024-03-25T10:22:48;17.30;62.60
39931;DHT22;26635;-35.248;149.138;2024-03-25T10:25:29;17.30;62.00
39931;DHT22;26635;-35.248;149.138;2024-03-25T10:27:58;17.20;63.80
39931;DHT22;26635;-35.248;149.138;2024-03-25T10:30:28;17.20;63.00
39931;DHT22;26635;-35.248;149.138;2024-03-25T10:33:02;17.10;63.50
39931;DHT22;26635;-35.248;149.138;2024-03-25T10:35:37;17.00;63.80
39931;DHT22;26635;-35.248;149.138;2024-03-25T10:38:09;17.00;63.30
39931;DHT22;26635;-35.248;149.138;2024-03-25T10:40:39;16.90;62.80
39931;DHT22;26635;-35.248;149.138;2024-03-25T10:43:11;16.80;63.70
39931;DHT22;26635;-35.248;149.138;2024-03-25T10:45:49;16.80;64.20
39931;DHT22;26635;-35.248;149.138;2024-03-25T10:48:21;16.70;65.20
39931;DHT22;26635;-35.248;149.138;2024-03-25T10:50:58;16.60;67.20
39931;DHT22;26635;-35.248;149.138;2024-03-25T10:53:28;16.60;66.20
39931;DHT22;26635;-35.248;149.138;2024-03-25T10:55:57;16.50;66.70
39931;DHT22;26635;-35.248;149.138;2024-03-25T10:58:26;16.40;67.90
39931;DHT22;26635;-35.248;149.138;2024-03-25T11:00:55;16.40;68.30
39931;DHT22;26635;-35.248;149.138;2024-03-25T11:03:24;16.30;69.10
39931;DHT22;26635;-35.248;149.138;2024-03-25T11:05:53;16.20;68.70
39931;DHT22;26635;-35.248;149.138;2024-03-25T11:08:30;16.20;66.70
39931;DHT22;26635;-35.248;149.138;2024-03-25T11:11:00;16.10;66.90
39931;DHT22;26635;-35.248;149.138;2024-03-25T11:13:31;16.00;67.90
39931;DHT22;26635;-35.248;149.138;2024-03-25T11:16:00;15.90;67.90
39931;DHT22;26635;-35.248;149.138;2024-03-25T11:18:28;15.80;69.80
39931;DHT22;26635;-35.248;149.138;2024-03-25T11:21:07;15.80;69.50
39931;DHT22;26635;-35.248;149.138;2024-03-25T11:23:42;15.80;69.40
39931;DHT22;26635;-35.248;149.138;2024-03-25T11:26:26;15.70;67.60
39931;DHT22;26635;-35.248;149.138;2024-03-25T11:28:57;15.60;68.20
39931;DHT22;26635;-35.248;149.138;2024-03-25T11:31:27;15.60;71.50
39931;DHT22;26635;-35.248;149.138;2024-03-25T11:33:55;15.50;69.80
39931;DHT22;26635;-35.248;149.138;2024-03-25T11:36:25;15.40;70.10
39931;DHT22;26635;-35.248;149.138;2024-03-25T11:39:05;15.30;69.80
39931;DHT22;26635;-35.248;149.138;2024-03-25T11:41:40;15.30;69.80
39931;DHT22;26635;-35.248;149.138;2024-03-25T11:44:09;15.30;70.40
39931;DHT22;26635;-35.248;149.138;2024-03-25T11:46:38;15.20;71.50
39931;DHT22;26635;-35.248;149.138;2024-03-25T11:49:12;15.10;72.40
39931;DHT22;26635;-35.248;149.138;2024-03-25T11:51:42;15.00;71.10
39931;DHT22;26635;-35.248;149.138;2024-03-25T11:54:12;15.10;70.10
39931;DHT22;26635;-35.248;149.138;2024-03-25T11:56:40;15.00;70.20
39931;DHT22;26635;-35.248;149.138;2024-03-25T11:59:12;15.00;69.80
39931;DHT22;26635;-35.248;149.138;2024-03-25T12:01:41;14.90;70.60
39931;DHT22;26635;-35.248;149.138;2024-03-25T12:04:17;14.80;72.70
39931;DHT22;26635;-35.248;149.138;2024-03-25T12:06:45;14.70;72.60
39931;DHT22;26635;-35.248;149.138;2024-03-25T12:09:14;14.70;73.20
39931;DHT22;26635;-35.248;149.138;2024-03-25T12:12:00;14.70;73.10
39931;DHT22;26635;-35.248;149.138;2024-03-25T12:14:29;14.60;73.00
39931;DHT22;26635;-35.248;149.138;2024-03-25T12:16:57;14.60;75.10
39931;DHT22;26635;-35.248;149.138;2024-03-25T12:19:26;14.50;74.30
39931;DHT22;26635;-35.248;149.138;2024-03-25T12:22:01;14.40;74.90
39931;DHT22;26635;-35.248;149.138;2024-03-25T12:24:31;14.30;74.90
39931;DHT22;26635;-35.248;149.138;2024-03-25T12:27:00;14.30;74.50
39931;DHT22;26635;-35.248;149.138;2024-03-25T12:29:28;14.30;74.40
39931;DHT22;26635;-35.248;149.138;2024-03-25T12:31:57;14.20;74.80
39931;DHT22;26635;-35.248;149.138;2024-03-25T12:34:26;14.20;75.60
39931;DHT22;26635;-35.248;149.138;2024-03-25T12:37:04;14.10;74.80
39931;DHT22;26635;-35.248;149.138;2024-03-25T12:39:32;14.20;75.20
39931;DHT22;26635;-35.248;149.138;2024-03-25T12:42:04;14.10;75.30
39931;DHT22;26635;-35.248;149.138;2024-03-25T12:44:34;14.10;74.80
39931;DHT22;26635;-35.248;149.138;2024-03-25T12:47:02;14.00;75.60
39931;DHT22;26635;-35.248;149.138;2024-03-25T12:49:30;14.00;75.40
39931;DHT22;26635;-35.248;149.138;2024-03-25T12:51:59;14.00;74.70
39931;DHT22;26635;-35.248;149.138;2024-03-25T12:54:29;13.90;75.20
39931;DHT22;26635;-35.248;149.138;2024-03-25T12:56:57;13.90;75.10
39931;DHT22;26635;-35.248;149.138;2024-03-25T12:59:25;13.90;75.20
39931;DHT22;26635;-35.248;149.138;2024-03-25T13:01:53;13.90;74.70
39931;DHT22;26635;-35.248;149.138;2024-03-25T13:04:22;13.90;75.60
39931;DHT22;26635;-35.248;149.138;2024-03-25T13:06:50;13.90;75.20
39931;DHT22;26635;-35.248;149.138;2024-03-25T13:09:19;13.90;75.20
39931;DHT22;26635;-35.248;149.138;2024-03-25T13:11:47;13.90;77.00
39931;DHT22;26635;-35.248;149.138;2024-03-25T13:14:16;13.80;76.30
39931;DHT22;26635;-35.248;149.138;2024-03-25T13:16:44;13.80;79.40
39931;DHT22;26635;-35.248;149.138;2024-03-25T13:19:13;13.70;78.00
39931;DHT22;26635;-35.248;149.138;2024-03-25T13:21:42;13.70;77.70
39931;DHT22;26635;-35.248;149.138;2024-03-25T13:24:10;13.70;77.70
39931;DHT22;26635;-35.248;149.138;2024-03-25T13:26:39;13.60;79.30
39931;DHT22;26635;-35.248;149.138;2024-03-25T13:29:07;13.50;78.40
39931;DHT22;26635;-35.248;149.138;2024-03-25T13:31:36;13.40;78.60
39931;DHT22;26635;-35.248;149.138;2024-03-25T13:34:05;13.40;77.70
39931;DHT22;26635;-35.248;149.138;2024-03-25T13:36:33;13.30;78.30
39931;DHT22;26635;-35.248;149.138;2024-03-25T13:39:01;13.30;79.20
39931;DHT22;26635;-35.248;149.138;2024-03-25T13:41:30;13.30;78.80
39931;DHT22;26635;-35.248;149.138;2024-03-25T13:43:59;13.30;79.30
39931;DHT22;26635;-35.248;149.138;2024-03-25T13:46:28;13.20;79.30
39931;DHT22;26635;-35.248;149.138;2024-03-25T13:48:57;13.20;80.20
39931;DHT22;26635;-35.248;149.138;2024-03-25T13:51:25;13.20;79.80
39931;DHT22;26635;-35.248;149.138;2024-03-25T13:53:54;13.20;79.40
39931;DHT22;26635;-35.248;149.138;2024-03-25T13:56:22;13.20;79.70
39931;DHT22;26635;-35.248;149.138;2024-03-25T13:58:59;13.20;79.70
39931;DHT22;26635;-35.248;149.138;2024-03-25T14:01:27;13.10;80.20
39931;DHT22;26635;-35.248;149.138;2024-03-25T14:03:56;13.10;79.10
39931;DHT22;26635;-35.248;149.138;2024-03-25T14:06:24;13.10;80.30
39931;DHT22;26635;-35.248;149.138;2024-03-25T14:08:53;13.00;80.20
39931;DHT22;26635;-35.248;149.138;2024-03-25T14:11:21;13.00;79.00
39931;DHT22;26635;-35.248;149.138;2024-03-25T14:13:49;12.90;80.00
39931;DHT22;26635;-35.248;149.138;2024-03-25T14:16:18;12.90;81.00
39931;DHT22;26635;-35.248;149.138;2024-03-25T14:18:46;12.80;81.70
39931;DHT22;26635;-35.248;149.138;2024-03-25T14:21:15;12.70;80.80
39931;DHT22;26635;-35.248;149.138;2024-03-25T14:23:43;12.70;81.00
39931;DHT22;26635;-35.248;149.138;2024-03-25T14:26:16;12.70;81.60
39931;DHT22;26635;-35.248;149.138;2024-03-25T14:28:44;12.70;81.00
39931;DHT22;26635;-35.248;149.138;2024-03-25T14:31:13;12.70;80.50
39931;DHT22;26635;-35.248;149.138;2024-03-25T14:33:41;12.60;82.10
39931;DHT22;26635;-35.248;149.138;2024-03-25T14:36:09;12.60;81.00
39931;DHT22;26635;-35.248;149.138;2024-03-25T14:38:38;12.50;81.00
39931;DHT22;26635;-35.248;149.138;2024-03-25T14:41:06;12.40;83.10
39931;DHT22;26635;-35.248;149.138;2024-03-25T14:43:35;12.40;82.20
39931;DHT22;26635;-35.248;149.138;2024-03-25T14:46:03;12.30;82.60
39931;DHT22;26635;-35.248;149.138;2024-03-25T14:48:32;12.30;83.70
39931;DHT22;26635;-35.248;149.138;2024-03-25T14:51:00;12.30;82.80
39931;DHT22;26635;-35.248;149.138;2024-03-25T14:53:28;12.20;83.70
39931;DHT22;26635;-35.248;149.138;2024-03-25T14:55:57;12.20;82.70
39931;DHT22;26635;-35.248;149.138;2024-03-25T14:58:25;12.20;84.00
39931;DHT22;26635;-35.248;149.138;2024-03-25T15:00:54;12.10;82.70